createdAt,value
2018-07-23T00:00:20.304Z,0
2018-07-23T00:01:00.883Z,0
2018-07-23T00:01:41.447Z,0
2018-07-23T00:02:22.009Z,0
2018-07-23T00:03:02.574Z,0
2018-07-23T00:03:43.144Z,0
2018-07-23T00:04:23.709Z,0
2018-07-23T00:05:04.285Z,0
2018-07-23T00:05:44.851Z,0
2018-07-23T00:06:25.428Z,0
2018-07-23T00:07:05.986Z,0
2018-07-23T00:07:46.557Z,0
2018-07-23T00:08:27.116Z,0
2018-07-23T00:09:07.662Z,0
2018-07-23T00:09:48.228Z,0
2018-07-23T00:10:28.808Z,0
2018-07-23T00:11:09.369Z,0
2018-07-23T00:11:49.934Z,0
2018-07-23T00:12:30.509Z,0
2018-07-23T00:13:11.057Z,0
2018-07-23T00:13:51.631Z,0
2018-07-23T00:14:32.196Z,0
2018-07-23T00:15:12.771Z,0
2018-07-23T00:15:53.333Z,0
2018-07-23T00:16:33.896Z,0
2018-07-23T00:17:14.491Z,0
2018-07-23T00:17:55.066Z,0
2018-07-23T00:18:35.628Z,0
2018-07-23T00:19:16.184Z,0
2018-07-23T00:19:56.758Z,0
2018-07-23T00:20:37.313Z,0
2018-07-23T00:21:17.863Z,0
2018-07-23T00:21:58.433Z,0
2018-07-23T00:22:38.993Z,0
2018-07-23T00:23:19.569Z,0
2018-07-23T00:24:00.130Z,0
2018-07-23T00:24:40.689Z,0
2018-07-23T00:25:21.263Z,0
2018-07-23T00:26:01.825Z,0
2018-07-23T00:26:42.400Z,0
2018-07-23T00:27:22.982Z,0
2018-07-23T00:28:03.521Z,0
2018-07-23T00:28:44.085Z,0
2018-07-23T00:29:24.658Z,0
2018-07-23T00:30:05.250Z,0
2018-07-23T00:30:45.820Z,0
2018-07-23T00:31:26.377Z,0
2018-07-23T00:32:06.945Z,0
2018-07-23T00:32:47.525Z,0
2018-07-23T00:33:28.086Z,0
2018-07-23T00:34:08.651Z,0
2018-07-23T00:34:49.220Z,0
2018-07-23T00:35:29.793Z,0
2018-07-23T00:36:10.379Z,0
2018-07-23T00:36:50.986Z,0
2018-07-23T00:37:31.552Z,0
2018-07-23T00:38:12.121Z,0
2018-07-23T00:38:52.692Z,0
2018-07-23T00:39:33.260Z,0
2018-07-23T00:40:13.824Z,0
2018-07-23T00:40:54.396Z,0
2018-07-23T00:41:34.956Z,0
2018-07-23T00:42:15.527Z,0
2018-07-23T00:42:56.102Z,0
2018-07-23T00:43:36.665Z,0
2018-07-23T00:44:17.240Z,0
2018-07-23T00:44:57.801Z,0
2018-07-23T00:45:38.379Z,0
2018-07-23T00:46:18.956Z,0
2018-07-23T00:46:59.519Z,0
2018-07-23T00:47:40.095Z,0
2018-07-23T00:48:20.659Z,0
2018-07-23T00:49:01.226Z,0
2018-07-23T00:49:41.804Z,0
2018-07-23T00:50:22.376Z,0
2018-07-23T00:51:03.017Z,0
2018-07-23T00:51:43.579Z,0
2018-07-23T00:52:24.153Z,0
2018-07-23T00:53:04.720Z,0
2018-07-23T00:53:45.296Z,0
2018-07-23T00:54:25.862Z,0
2018-07-23T00:55:06.426Z,0
2018-07-23T00:55:46.988Z,0
2018-07-23T00:56:27.549Z,0
2018-07-23T00:57:08.103Z,0
2018-07-23T00:57:48.675Z,0
2018-07-23T00:58:29.237Z,0
2018-07-23T00:59:09.818Z,0
2018-07-23T00:59:50.397Z,0
2018-07-23T01:00:30.975Z,0
2018-07-23T01:01:11.530Z,0
2018-07-23T01:01:52.109Z,0
2018-07-23T01:02:32.681Z,0
2018-07-23T01:03:13.252Z,0
2018-07-23T01:03:53.795Z,0
2018-07-23T01:04:34.412Z,0
2018-07-23T01:05:14.983Z,0
2018-07-23T01:05:55.556Z,0
2018-07-23T01:06:36.151Z,0
2018-07-23T01:07:16.693Z,0
2018-07-23T01:07:57.257Z,0
2018-07-23T01:08:37.824Z,0
2018-07-23T01:09:18.383Z,0
2018-07-23T01:09:58.948Z,0
2018-07-23T01:10:39.529Z,0
2018-07-23T01:11:20.079Z,0
2018-07-23T01:12:00.645Z,0
2018-07-23T01:12:41.215Z,0
2018-07-23T01:13:21.791Z,0
2018-07-23T01:14:02.342Z,0
2018-07-23T01:14:42.886Z,0
2018-07-23T01:15:23.445Z,0
2018-07-23T01:16:04.014Z,0
2018-07-23T01:16:44.562Z,0
2018-07-23T01:17:25.129Z,0
2018-07-23T01:18:05.689Z,0
2018-07-23T01:18:46.309Z,0
2018-07-23T01:19:26.868Z,0
2018-07-23T01:20:07.427Z,0
2018-07-23T01:20:47.977Z,0
2018-07-23T01:21:28.537Z,0
2018-07-23T01:22:09.112Z,0
2018-07-23T01:22:49.683Z,0
2018-07-23T01:23:30.253Z,0
2018-07-23T01:24:10.810Z,0
2018-07-23T01:24:51.368Z,0
2018-07-23T01:25:31.936Z,0
2018-07-23T01:26:12.491Z,0
2018-07-23T01:26:53.062Z,0
2018-07-23T01:27:33.592Z,0
2018-07-23T01:28:14.164Z,0
2018-07-23T01:28:54.757Z,0
2018-07-23T01:29:35.326Z,0
2018-07-23T01:30:15.881Z,0
2018-07-23T01:30:56.436Z,0
2018-07-23T01:31:36.995Z,0
2018-07-23T01:32:17.560Z,0
2018-07-23T01:32:58.095Z,0
2018-07-23T01:33:38.638Z,0
2018-07-23T01:34:19.190Z,0
2018-07-23T01:34:59.759Z,0
2018-07-23T01:35:40.326Z,0
2018-07-23T01:36:20.891Z,0
2018-07-23T01:37:01.467Z,0
2018-07-23T01:37:42.032Z,0
2018-07-23T01:38:22.595Z,0
2018-07-23T01:39:03.160Z,0
2018-07-23T01:39:43.737Z,0
2018-07-23T01:40:24.304Z,0
2018-07-23T01:41:04.871Z,0
2018-07-23T01:41:45.439Z,0
2018-07-23T01:42:26.000Z,0
2018-07-23T01:43:06.576Z,0
2018-07-23T01:43:47.146Z,0
2018-07-23T01:44:27.699Z,0
2018-07-23T01:45:08.269Z,0
2018-07-23T01:45:48.847Z,0
2018-07-23T01:46:29.412Z,0
2018-07-23T01:47:09.974Z,0
2018-07-23T01:47:50.521Z,0
2018-07-23T01:48:31.081Z,0
2018-07-23T01:49:11.638Z,0
2018-07-23T01:49:52.187Z,0
2018-07-23T01:50:32.796Z,0
2018-07-23T01:51:13.367Z,0
2018-07-23T01:51:53.918Z,0
2018-07-23T01:52:34.471Z,0
2018-07-23T01:53:15.035Z,0
2018-07-23T01:53:55.608Z,0
2018-07-23T01:54:36.182Z,0
2018-07-23T01:55:16.760Z,0
2018-07-23T01:55:57.316Z,0
2018-07-23T01:56:37.868Z,0
2018-07-23T01:57:18.447Z,0
2018-07-23T01:57:59.004Z,0
2018-07-23T01:58:39.581Z,0
2018-07-23T01:59:20.149Z,0
2018-07-23T02:00:00.719Z,0
2018-07-23T02:00:41.294Z,0
2018-07-23T02:01:21.846Z,0
2018-07-23T02:02:02.408Z,0
2018-07-23T02:02:42.976Z,0
2018-07-23T02:03:23.552Z,0
2018-07-23T02:04:04.154Z,0
2018-07-23T02:04:44.729Z,0
2018-07-23T02:05:25.298Z,0
2018-07-23T02:06:05.874Z,0
2018-07-23T02:06:46.458Z,0
2018-07-23T02:07:27.156Z,0
2018-07-23T02:08:07.731Z,0
2018-07-23T02:08:48.403Z,0
2018-07-23T02:09:29.071Z,0
2018-07-23T02:10:09.640Z,0
2018-07-23T02:10:50.235Z,0
2018-07-23T02:11:30.941Z,0
2018-07-23T02:12:11.481Z,0
2018-07-23T02:12:52.066Z,0
2018-07-23T02:13:33.797Z,0
2018-07-23T02:14:14.283Z,0
2018-07-23T02:14:54.860Z,0
2018-07-23T02:15:35.403Z,0
2018-07-23T02:16:15.964Z,0
2018-07-23T02:16:56.519Z,0
2018-07-23T02:17:37.068Z,0
2018-07-23T02:18:17.664Z,0
2018-07-23T02:18:58.212Z,0
2018-07-23T02:19:38.777Z,0
2018-07-23T02:20:19.345Z,0
2018-07-23T02:20:59.902Z,0
2018-07-23T02:21:40.491Z,0
2018-07-23T02:22:21.046Z,0
2018-07-23T02:23:01.600Z,0
2018-07-23T02:23:42.168Z,0
2018-07-23T02:24:22.739Z,0
2018-07-23T02:25:03.342Z,0
2018-07-23T02:25:43.901Z,0
2018-07-23T02:26:24.485Z,0
2018-07-23T02:27:05.060Z,0
2018-07-23T02:27:45.616Z,0
2018-07-23T02:28:26.186Z,0
2018-07-23T02:29:06.767Z,0
2018-07-23T02:29:47.311Z,0
2018-07-23T02:30:27.892Z,0
2018-07-23T02:31:08.464Z,0
2018-07-23T02:31:49.026Z,0
2018-07-23T02:32:29.593Z,0
2018-07-23T02:33:10.165Z,0
2018-07-23T02:33:50.719Z,0
2018-07-23T02:34:31.291Z,0
2018-07-23T02:35:11.855Z,0
2018-07-23T02:35:52.437Z,0
2018-07-23T02:36:32.998Z,0
2018-07-23T02:37:13.576Z,0
2018-07-23T02:37:54.150Z,0
2018-07-23T02:38:34.711Z,0
2018-07-23T02:39:15.261Z,0
2018-07-23T02:39:55.828Z,0
2018-07-23T02:40:36.401Z,0
2018-07-23T02:41:16.968Z,0
2018-07-23T02:41:57.535Z,0
2018-07-23T02:42:38.094Z,0
2018-07-23T02:43:18.654Z,0
2018-07-23T02:43:59.224Z,0
2018-07-23T02:44:39.801Z,0
2018-07-23T02:45:20.370Z,0
2018-07-23T02:46:00.930Z,0
2018-07-23T02:46:41.527Z,0
2018-07-23T02:47:22.105Z,0
2018-07-23T02:48:02.686Z,0
2018-07-23T02:48:43.241Z,0
2018-07-23T02:49:23.805Z,0
2018-07-23T02:50:04.379Z,0
2018-07-23T02:50:44.950Z,0
2018-07-23T02:51:25.509Z,0
2018-07-23T02:52:06.078Z,0
2018-07-23T02:52:46.653Z,0
2018-07-23T02:53:27.212Z,0
2018-07-23T02:54:07.789Z,0
2018-07-23T02:54:48.368Z,0
2018-07-23T02:55:28.910Z,0
2018-07-23T02:56:09.487Z,0
2018-07-23T02:56:50.049Z,0
2018-07-23T02:57:30.641Z,0
2018-07-23T02:58:11.223Z,0
2018-07-23T02:58:51.799Z,0
2018-07-23T02:59:32.403Z,0
2018-07-23T03:00:12.948Z,0
2018-07-23T03:00:53.524Z,0
2018-07-23T03:01:34.097Z,0
2018-07-23T03:02:14.663Z,0
2018-07-23T03:02:55.223Z,0
2018-07-23T03:03:35.779Z,0
2018-07-23T03:04:16.346Z,0
2018-07-23T03:04:56.926Z,0
2018-07-23T03:05:37.494Z,0
2018-07-23T03:06:18.066Z,0
2018-07-23T03:06:58.634Z,0
2018-07-23T03:07:39.204Z,0
2018-07-23T03:08:19.778Z,0
2018-07-23T03:09:00.339Z,0
2018-07-23T03:09:40.905Z,0
2018-07-23T03:10:21.463Z,0
2018-07-23T03:11:02.013Z,0
2018-07-23T03:11:42.581Z,0
2018-07-23T03:12:23.157Z,0
2018-07-23T03:13:03.725Z,0
2018-07-23T03:13:44.338Z,0
2018-07-23T03:14:24.857Z,0
2018-07-23T03:15:05.414Z,0
2018-07-23T03:15:45.976Z,0
2018-07-23T03:16:26.537Z,0
2018-07-23T03:17:07.096Z,0
2018-07-23T03:17:47.668Z,0
2018-07-23T03:18:28.265Z,0
2018-07-23T03:19:08.834Z,0
2018-07-23T03:19:49.394Z,0
2018-07-23T03:20:29.967Z,0
2018-07-23T03:21:10.530Z,0
2018-07-23T03:21:51.169Z,5
2018-07-23T03:22:31.660Z,5
2018-07-23T03:23:12.223Z,5
2018-07-23T03:23:52.791Z,5
2018-07-23T03:24:33.357Z,5
2018-07-23T03:25:13.923Z,5
2018-07-23T03:25:54.489Z,5
2018-07-23T03:26:35.061Z,5
2018-07-23T03:27:15.630Z,5
2018-07-23T03:27:56.188Z,5
2018-07-23T03:28:36.743Z,5
2018-07-23T03:29:17.317Z,5
2018-07-23T03:29:57.898Z,5
2018-07-23T03:30:38.487Z,5
2018-07-23T03:31:19.047Z,5
2018-07-23T03:31:59.620Z,5
2018-07-23T03:32:40.179Z,5
2018-07-23T03:33:20.745Z,5
2018-07-23T03:34:01.304Z,5
2018-07-23T03:34:41.876Z,5
2018-07-23T03:35:22.437Z,5
2018-07-23T03:36:03.009Z,5
2018-07-23T03:36:43.581Z,5
2018-07-23T03:37:24.146Z,5
2018-07-23T03:38:04.723Z,10
2018-07-23T03:38:45.299Z,10
2018-07-23T03:39:25.859Z,10
2018-07-23T03:40:06.421Z,10
2018-07-23T03:40:46.995Z,10
2018-07-23T03:41:27.561Z,10
2018-07-23T03:42:08.133Z,10
2018-07-23T03:42:48.703Z,10
2018-07-23T03:43:29.255Z,10
2018-07-23T03:44:09.815Z,10
2018-07-23T03:44:50.374Z,10
2018-07-23T03:45:30.936Z,10
2018-07-23T03:46:11.520Z,15
2018-07-23T03:46:52.107Z,15
2018-07-23T03:47:32.670Z,15
2018-07-23T03:48:13.221Z,15
2018-07-23T03:48:53.792Z,15
2018-07-23T03:49:34.362Z,15
2018-07-23T03:50:14.927Z,15
2018-07-23T03:50:55.499Z,15
2018-07-23T03:51:36.065Z,15
2018-07-23T03:52:16.638Z,15
2018-07-23T03:52:57.200Z,20
2018-07-23T03:53:37.774Z,20
2018-07-23T03:54:18.330Z,20
2018-07-23T03:54:58.903Z,20
2018-07-23T03:55:39.463Z,20
2018-07-23T03:56:20.035Z,20
2018-07-23T03:57:00.594Z,20
2018-07-23T03:57:41.168Z,20
2018-07-23T03:58:21.735Z,20
2018-07-23T03:59:02.305Z,25
2018-07-23T03:59:42.870Z,25
2018-07-23T04:00:23.434Z,25
2018-07-23T04:01:03.997Z,25
2018-07-23T04:01:44.563Z,25
2018-07-23T04:02:25.135Z,25
2018-07-23T04:03:05.696Z,25
2018-07-23T04:03:46.266Z,25
2018-07-23T04:04:26.846Z,30
2018-07-23T04:05:07.398Z,30
2018-07-23T04:05:48.040Z,30
2018-07-23T04:06:28.593Z,30
2018-07-23T04:07:09.156Z,30
2018-07-23T04:07:49.741Z,30
2018-07-23T04:08:30.301Z,30
2018-07-23T04:09:10.878Z,30
2018-07-23T04:09:51.457Z,30
2018-07-23T04:10:32.209Z,30
2018-07-23T04:11:13.010Z,30
2018-07-23T04:11:53.584Z,30
2018-07-23T04:12:34.159Z,30
2018-07-23T04:13:14.717Z,30
2018-07-23T04:13:55.364Z,35
2018-07-23T04:14:35.930Z,35
2018-07-23T04:15:16.501Z,35
2018-07-23T04:15:57.071Z,35
2018-07-23T04:16:37.639Z,35
2018-07-23T04:17:18.203Z,35
2018-07-23T04:17:58.778Z,35
2018-07-23T04:18:39.344Z,40
2018-07-23T04:19:19.904Z,40
2018-07-23T04:20:00.473Z,40
2018-07-23T04:20:41.082Z,40
2018-07-23T04:21:21.625Z,40
2018-07-23T04:22:02.209Z,45
2018-07-23T04:22:42.764Z,45
2018-07-23T04:23:23.358Z,45
2018-07-23T04:24:03.926Z,45
2018-07-23T04:24:44.481Z,50
2018-07-23T04:25:25.047Z,50
2018-07-23T04:26:05.602Z,50
2018-07-23T04:26:46.159Z,50
2018-07-23T04:27:26.736Z,50
2018-07-23T04:28:07.305Z,50
2018-07-23T04:28:47.876Z,55
2018-07-23T04:29:28.439Z,55
2018-07-23T04:30:08.996Z,55
2018-07-23T04:30:49.553Z,55
2018-07-23T04:31:30.120Z,60
2018-07-23T04:32:10.728Z,60
2018-07-23T04:32:51.299Z,60
2018-07-23T04:33:31.884Z,60
2018-07-23T04:34:12.509Z,65
2018-07-23T04:34:53.130Z,65
2018-07-23T04:35:33.702Z,65
2018-07-23T04:36:14.271Z,65
2018-07-23T04:36:54.834Z,65
2018-07-23T04:37:35.402Z,70
2018-07-23T04:38:15.950Z,70
2018-07-23T04:38:56.515Z,70
2018-07-23T04:39:37.094Z,70
2018-07-23T04:40:17.651Z,70
2018-07-23T04:40:58.211Z,75
2018-07-23T04:41:38.806Z,75
2018-07-23T04:42:19.420Z,75
2018-07-23T04:42:59.939Z,75
2018-07-23T04:43:40.495Z,75
2018-07-23T04:44:21.060Z,80
2018-07-23T04:45:01.624Z,80
2018-07-23T04:45:42.194Z,80
2018-07-23T04:46:22.782Z,80
2018-07-23T04:47:03.350Z,80
2018-07-23T04:47:43.908Z,85
2018-07-23T04:48:24.456Z,85
2018-07-23T04:49:05.022Z,85
2018-07-23T04:49:45.575Z,85
2018-07-23T04:50:26.131Z,85
2018-07-23T04:51:06.725Z,85
2018-07-23T04:51:47.281Z,90
2018-07-23T04:52:27.836Z,90
2018-07-23T04:53:08.387Z,90
2018-07-23T04:53:48.964Z,90
2018-07-23T04:54:29.588Z,90
2018-07-23T04:55:10.151Z,95
2018-07-23T04:55:50.719Z,95
2018-07-23T04:56:31.293Z,95
2018-07-23T04:57:11.839Z,95
2018-07-23T04:57:52.388Z,95
2018-07-23T04:58:32.973Z,100
2018-07-23T04:59:13.537Z,100
2018-07-23T04:59:54.103Z,100
2018-07-23T05:00:34.704Z,100
2018-07-23T05:01:15.272Z,105
2018-07-23T05:01:55.840Z,105
2018-07-23T05:02:36.386Z,105
2018-07-23T05:03:16.962Z,105
2018-07-23T05:03:57.528Z,105
2018-07-23T05:04:38.096Z,110
2018-07-23T05:05:18.652Z,110
2018-07-23T05:05:59.260Z,110
2018-07-23T05:06:39.837Z,110
2018-07-23T05:07:20.398Z,110
2018-07-23T05:08:00.958Z,115
2018-07-23T05:08:41.569Z,115
2018-07-23T05:09:22.077Z,115
2018-07-23T05:10:02.649Z,115
2018-07-23T05:10:43.216Z,115
2018-07-23T05:11:23.772Z,115
2018-07-23T05:12:04.357Z,115
2018-07-23T05:12:44.920Z,115
2018-07-23T05:13:25.479Z,115
2018-07-23T05:14:06.044Z,120
2018-07-23T05:14:46.603Z,120
2018-07-23T05:15:27.155Z,120
2018-07-23T05:16:07.717Z,120
2018-07-23T05:16:48.316Z,120
2018-07-23T05:17:28.875Z,120
2018-07-23T05:18:09.459Z,120
2018-07-23T05:18:50.049Z,120
2018-07-23T05:19:30.595Z,120
2018-07-23T05:20:11.161Z,120
2018-07-23T05:20:51.739Z,125
2018-07-23T05:21:32.304Z,125
2018-07-23T05:22:12.876Z,125
2018-07-23T05:22:53.448Z,125
2018-07-23T05:23:34.019Z,125
2018-07-23T05:24:14.566Z,125
2018-07-23T05:24:55.129Z,125
2018-07-23T05:25:35.675Z,130
2018-07-23T05:26:16.314Z,130
2018-07-23T05:26:56.789Z,130
2018-07-23T05:27:37.363Z,130
2018-07-23T05:28:17.962Z,130
2018-07-23T05:28:58.523Z,130
2018-07-23T05:29:39.102Z,130
2018-07-23T05:30:19.674Z,130
2018-07-23T05:31:00.234Z,135
2018-07-23T05:31:40.805Z,135
2018-07-23T05:32:21.432Z,135
2018-07-23T05:33:01.992Z,135
2018-07-23T05:33:42.570Z,140
2018-07-23T05:34:23.148Z,140
2018-07-23T05:35:03.723Z,140
2018-07-23T05:35:44.282Z,140
2018-07-23T05:36:25.416Z,145
2018-07-23T05:37:05.954Z,145
2018-07-23T05:37:46.515Z,210
2018-07-23T05:38:27.132Z,465
2018-07-23T05:39:07.659Z,795
2018-07-23T05:39:48.218Z,1070
2018-07-23T05:40:28.797Z,1210
2018-07-23T05:41:09.364Z,1265
2018-07-23T05:41:49.924Z,1355
2018-07-23T05:42:30.493Z,1315
2018-07-23T05:43:11.055Z,1285
2018-07-23T05:43:51.616Z,1320
2018-07-23T05:44:32.184Z,1405
2018-07-23T05:45:12.747Z,1400
2018-07-23T05:45:53.321Z,1355
2018-07-23T05:46:33.872Z,1325
2018-07-23T05:47:14.439Z,1325
2018-07-23T05:47:55.000Z,1375
2018-07-23T05:48:35.588Z,1370
2018-07-23T05:49:16.166Z,1315
2018-07-23T05:49:56.741Z,1285
2018-07-23T05:50:37.369Z,1260
2018-07-23T05:51:17.947Z,1230
2018-07-23T05:51:58.515Z,1265
2018-07-23T05:52:39.104Z,1365
2018-07-23T05:53:19.682Z,1470
2018-07-23T05:54:00.250Z,1505
2018-07-23T05:54:40.813Z,1475
2018-07-23T05:55:21.378Z,1470
2018-07-23T05:56:01.950Z,1455
2018-07-23T05:56:42.510Z,1495
2018-07-23T05:57:23.080Z,1520
2018-07-23T05:58:03.651Z,1475
2018-07-23T05:58:44.208Z,1450
2018-07-23T05:59:24.767Z,1480
2018-07-23T06:00:05.337Z,1540
2018-07-23T06:00:45.921Z,1530
2018-07-23T06:01:26.501Z,1500
2018-07-23T06:02:07.071Z,1490
2018-07-23T06:02:47.638Z,1515
2018-07-23T06:03:28.204Z,1485
2018-07-23T06:04:08.784Z,1465
2018-07-23T06:04:50.239Z,1495
2018-07-23T06:05:30.377Z,1485
2018-07-23T06:06:10.921Z,1445
2018-07-23T06:06:51.556Z,1465
2018-07-23T06:07:32.162Z,1515
2018-07-23T06:08:12.738Z,1505
2018-07-23T06:08:53.328Z,1455
2018-07-23T06:09:33.901Z,1475
2018-07-23T06:10:14.479Z,1530
2018-07-23T06:10:55.049Z,1585
2018-07-23T06:11:35.639Z,1595
2018-07-23T06:12:16.215Z,1595
2018-07-23T06:12:56.799Z,1575
2018-07-23T06:13:37.444Z,1580
2018-07-23T06:14:18.024Z,1615
2018-07-23T06:14:58.591Z,1630
2018-07-23T06:15:39.189Z,1570
2018-07-23T06:16:19.762Z,1525
2018-07-23T06:17:00.335Z,1505
2018-07-23T06:17:40.926Z,1510
2018-07-23T06:18:21.503Z,1605
2018-07-23T06:19:02.078Z,1565
2018-07-23T06:19:42.658Z,1370
2018-07-23T06:20:23.232Z,1330
2018-07-23T06:21:03.802Z,1535
2018-07-23T06:21:44.374Z,1675
2018-07-23T06:22:24.956Z,1650
2018-07-23T06:23:05.525Z,1570
2018-07-23T06:23:46.125Z,1555
2018-07-23T06:24:26.903Z,1590
2018-07-23T06:25:07.511Z,1595
2018-07-23T06:25:48.164Z,1465
2018-07-23T06:26:28.673Z,1305
2018-07-23T06:27:09.250Z,1385
2018-07-23T06:27:49.817Z,1540
2018-07-23T06:28:30.404Z,1565
2018-07-23T06:29:10.978Z,1565
2018-07-23T06:29:51.551Z,1625
2018-07-23T06:30:32.120Z,1650
2018-07-23T06:31:12.717Z,1625
2018-07-23T06:31:53.323Z,1610
2018-07-23T06:32:33.898Z,1615
2018-07-23T06:33:14.481Z,1650
2018-07-23T06:33:55.162Z,1685
2018-07-23T06:34:35.635Z,1695
2018-07-23T06:35:16.199Z,1730
2018-07-23T06:35:56.761Z,1775
2018-07-23T06:36:37.335Z,1760
2018-07-23T06:37:17.914Z,1800
2018-07-23T06:37:58.497Z,1785
2018-07-23T06:38:39.093Z,1810
2018-07-23T06:39:19.672Z,1805
2018-07-23T06:40:00.306Z,1770
2018-07-23T06:40:40.895Z,1750
2018-07-23T06:41:21.450Z,1655
2018-07-23T06:42:02.041Z,1635
2018-07-23T06:42:42.617Z,1685
2018-07-23T06:43:23.255Z,1690
2018-07-23T06:44:03.849Z,1735
2018-07-23T06:44:44.441Z,1745
2018-07-23T06:45:25.034Z,1740
2018-07-23T06:46:05.613Z,1765
2018-07-23T06:46:46.196Z,1720
2018-07-23T06:47:26.779Z,1665
2018-07-23T06:48:07.357Z,1690
2018-07-23T06:48:47.934Z,1710
2018-07-23T06:49:28.513Z,1595
2018-07-23T06:50:09.075Z,1650
2018-07-23T06:50:49.667Z,1720
2018-07-23T06:51:30.239Z,1820
2018-07-23T06:52:10.851Z,1820
2018-07-23T06:52:51.421Z,1800
2018-07-23T06:53:32.114Z,1830
2018-07-23T06:54:12.752Z,1855
2018-07-23T06:54:53.291Z,1865
2018-07-23T06:55:33.865Z,1845
2018-07-23T06:56:14.482Z,1825
2018-07-23T06:56:55.036Z,1860
2018-07-23T06:57:35.628Z,1900
2018-07-23T06:58:16.205Z,1885
2018-07-23T06:58:56.858Z,1855
2018-07-23T06:59:37.435Z,1855
2018-07-23T07:00:18.012Z,1785
2018-07-23T07:00:58.585Z,1815
2018-07-23T07:01:39.165Z,1865
2018-07-23T07:02:19.756Z,1855
2018-07-23T07:03:00.321Z,1945
2018-07-23T07:03:40.910Z,1950
2018-07-23T07:04:21.516Z,1815
2018-07-23T07:05:02.103Z,1790
2018-07-23T07:05:42.674Z,1860
2018-07-23T07:06:23.326Z,2000
2018-07-23T07:07:03.847Z,1970
2018-07-23T07:07:44.434Z,1910
2018-07-23T07:08:25.013Z,1950
2018-07-23T07:09:05.590Z,1910
2018-07-23T07:09:46.217Z,1960
2018-07-23T07:10:26.825Z,1855
2018-07-23T07:11:07.399Z,1900
2018-07-23T07:11:47.973Z,1790
2018-07-23T07:12:28.555Z,1680
2018-07-23T07:13:09.143Z,1630
2018-07-23T07:13:49.746Z,1625
2018-07-23T07:14:30.320Z,1640
2018-07-23T07:15:10.910Z,1585
2018-07-23T07:15:51.485Z,1500
2018-07-23T07:16:32.070Z,1460
2018-07-23T07:17:12.642Z,1385
2018-07-23T07:17:53.222Z,1245
2018-07-23T07:18:33.886Z,1120
2018-07-23T07:19:14.450Z,1050
2018-07-23T07:19:55.088Z,985
2018-07-23T07:20:35.620Z,915
2018-07-23T07:21:16.194Z,840
2018-07-23T07:21:56.863Z,790
2018-07-23T07:22:37.468Z,760
2018-07-23T07:23:18.089Z,725
2018-07-23T07:23:58.692Z,705
2018-07-23T07:24:39.276Z,675
2018-07-23T07:25:20.761Z,660
2018-07-23T07:26:01.301Z,660
2018-07-23T07:26:41.869Z,650
2018-07-23T07:27:22.442Z,640
2018-07-23T07:28:03.008Z,630
2018-07-23T07:28:43.587Z,615
2018-07-23T07:29:24.164Z,605
2018-07-23T07:30:04.761Z,595
2018-07-23T07:30:45.441Z,610
2018-07-23T07:31:26.029Z,590
2018-07-23T07:32:06.608Z,575
2018-07-23T07:32:47.176Z,565
2018-07-23T07:33:27.740Z,565
2018-07-23T07:34:08.313Z,560
2018-07-23T07:34:48.925Z,575
2018-07-23T07:35:29.488Z,575
2018-07-23T07:36:10.039Z,580
2018-07-23T07:36:50.616Z,580
2018-07-23T07:37:31.209Z,580
2018-07-23T07:38:11.898Z,580
2018-07-23T07:38:52.366Z,575
2018-07-23T07:39:32.942Z,575
2018-07-23T07:40:13.528Z,575
2018-07-23T07:40:54.100Z,570
2018-07-23T07:41:34.693Z,560
2018-07-23T07:42:15.280Z,550
2018-07-23T07:42:55.900Z,560
2018-07-23T07:43:36.484Z,565
2018-07-23T07:44:17.072Z,555
2018-07-23T07:44:57.648Z,545
2018-07-23T07:45:38.231Z,555
2018-07-23T07:46:18.810Z,550
2018-07-23T07:46:59.353Z,550
2018-07-23T07:47:39.942Z,545
2018-07-23T07:48:20.529Z,550
2018-07-23T07:49:01.101Z,550
2018-07-23T07:49:41.667Z,540
2018-07-23T07:50:22.271Z,540
2018-07-23T07:51:02.855Z,535
2018-07-23T07:51:43.451Z,525
2018-07-23T07:52:24.067Z,530
2018-07-23T07:53:04.645Z,530
2018-07-23T07:53:45.229Z,530
2018-07-23T07:54:25.798Z,535
2018-07-23T07:55:06.402Z,540
2018-07-23T07:55:47.008Z,535
2018-07-23T07:56:27.651Z,545
2018-07-23T07:57:08.161Z,550
2018-07-23T07:57:48.760Z,550
2018-07-23T07:58:29.353Z,545
2018-07-23T07:59:09.990Z,535
2018-07-23T07:59:50.515Z,540
2018-07-23T08:00:31.079Z,540
2018-07-23T08:01:11.662Z,530
2018-07-23T08:01:52.249Z,530
2018-07-23T08:02:32.818Z,530
2018-07-23T08:03:13.397Z,525
2018-07-23T08:03:53.978Z,525
2018-07-23T08:04:34.560Z,510
2018-07-23T08:05:15.119Z,490
2018-07-23T08:05:55.687Z,475
2018-07-23T08:06:36.290Z,465
2018-07-23T08:07:16.873Z,430
2018-07-23T08:07:57.455Z,390
2018-07-23T08:08:38.044Z,375
2018-07-23T08:09:18.594Z,370
2018-07-23T08:09:59.179Z,365
2018-07-23T08:10:39.755Z,360
2018-07-23T08:11:20.340Z,355
2018-07-23T08:12:00.923Z,350
2018-07-23T08:12:41.487Z,350
2018-07-23T08:13:22.078Z,345
2018-07-23T08:14:02.651Z,340
2018-07-23T08:14:43.271Z,340
2018-07-23T08:15:23.846Z,340
2018-07-23T08:16:04.424Z,335
2018-07-23T08:16:45.010Z,340
2018-07-23T08:17:25.582Z,335
2018-07-23T08:18:06.147Z,330
2018-07-23T08:18:46.722Z,330
2018-07-23T08:19:27.319Z,325
2018-07-23T08:20:07.897Z,320
2018-07-23T08:20:48.460Z,315
2018-07-23T08:21:29.064Z,310
2018-07-23T08:22:09.694Z,305
2018-07-23T08:22:50.270Z,300
2018-07-23T08:23:30.856Z,300
2018-07-23T08:24:11.444Z,300
2018-07-23T08:24:52.026Z,295
2018-07-23T08:25:32.605Z,290
2018-07-23T08:26:13.200Z,280
2018-07-23T08:26:53.758Z,280
2018-07-23T08:27:34.318Z,275
2018-07-23T08:28:14.905Z,270
2018-07-23T08:28:55.468Z,265
2018-07-23T08:29:36.054Z,260
2018-07-23T08:30:16.612Z,260
2018-07-23T08:30:57.237Z,255
2018-07-23T08:31:37.817Z,260
2018-07-23T08:32:18.370Z,255
2018-07-23T08:32:58.962Z,245
2018-07-23T08:33:39.545Z,250
2018-07-23T08:34:20.114Z,240
2018-07-23T08:35:00.678Z,235
2018-07-23T08:35:41.243Z,235
2018-07-23T08:36:21.862Z,230
2018-07-23T08:37:02.430Z,225
2018-07-23T08:37:43.019Z,225
2018-07-23T08:38:23.592Z,220
2018-07-23T08:39:04.160Z,220
2018-07-23T08:39:44.748Z,215
2018-07-23T08:40:25.382Z,215
2018-07-23T08:41:06.029Z,210
2018-07-23T08:41:46.613Z,205
2018-07-23T08:42:27.202Z,205
2018-07-23T08:43:07.798Z,205
2018-07-23T08:43:48.357Z,205
2018-07-23T08:44:28.945Z,200
2018-07-23T08:45:09.520Z,200
2018-07-23T08:45:50.101Z,195
2018-07-23T08:46:30.693Z,195
2018-07-23T08:47:11.284Z,190
2018-07-23T08:47:51.847Z,190
2018-07-23T08:48:32.462Z,190
2018-07-23T08:49:13.003Z,185
2018-07-23T08:49:53.579Z,185
2018-07-23T08:50:34.151Z,180
2018-07-23T08:51:14.781Z,180
2018-07-23T08:51:55.293Z,180
2018-07-23T08:52:35.861Z,175
2018-07-23T08:53:16.431Z,175
2018-07-23T08:53:56.989Z,175
2018-07-23T08:54:37.545Z,170
2018-07-23T08:55:18.108Z,170
2018-07-23T08:55:58.649Z,165
2018-07-23T08:56:39.361Z,165
2018-07-23T08:57:19.974Z,165
2018-07-23T08:58:00.507Z,160
2018-07-23T08:58:41.124Z,160
2018-07-23T08:59:21.693Z,160
2018-07-23T09:00:02.272Z,155
2018-07-23T09:00:42.851Z,150
2018-07-23T09:01:23.424Z,155
2018-07-23T09:02:04.003Z,150
2018-07-23T09:02:44.564Z,155
2018-07-23T09:03:25.153Z,150
2018-07-23T09:04:05.732Z,145
2018-07-23T09:04:46.292Z,145
2018-07-23T09:05:26.851Z,145
2018-07-23T09:06:07.416Z,145
2018-07-23T09:06:48.009Z,145
2018-07-23T09:07:28.570Z,140
2018-07-23T09:08:09.158Z,140
2018-07-23T09:08:49.813Z,145
2018-07-23T09:09:30.332Z,145
2018-07-23T09:10:10.896Z,140
2018-07-23T09:10:51.454Z,135
2018-07-23T09:11:32.016Z,135
2018-07-23T09:12:12.592Z,135
2018-07-23T09:12:53.160Z,135
2018-07-23T09:13:33.738Z,135
2018-07-23T09:14:14.304Z,135
2018-07-23T09:14:54.853Z,130
2018-07-23T09:15:35.430Z,130
2018-07-23T09:16:15.989Z,130
2018-07-23T09:16:56.586Z,130
2018-07-23T09:17:37.148Z,130
2018-07-23T09:18:17.714Z,125
2018-07-23T09:18:58.293Z,125
2018-07-23T09:19:38.866Z,125
2018-07-23T09:20:19.435Z,125
2018-07-23T09:21:00.006Z,125
2018-07-23T09:21:40.608Z,125
2018-07-23T09:22:21.251Z,125
2018-07-23T09:23:01.831Z,120
2018-07-23T09:23:42.435Z,120
2018-07-23T09:24:23.020Z,120
2018-07-23T09:25:03.551Z,120
2018-07-23T09:25:44.128Z,120
2018-07-23T09:26:24.862Z,120
2018-07-23T09:27:05.437Z,120
2018-07-23T09:27:46.018Z,115
2018-07-23T09:28:26.757Z,115
2018-07-23T09:29:07.430Z,115
2018-07-23T09:29:47.979Z,115
2018-07-23T09:30:28.560Z,115
2018-07-23T09:31:09.275Z,120
2018-07-23T09:31:49.693Z,115
2018-07-23T09:32:30.261Z,115
2018-07-23T09:33:10.814Z,115